Wrights, Illinois
Current Conditions -  °F | °C
As of 9:55 AM on Sunday 25 Jan 2015 (Local Time) from KIJX Reporting Station
Overcast Overcast  
Wind Chill: 39°   Ceiling: 3600
Heat Index: 44°   Visibility: 10mi
Dew Point: 42°   Wind: 9mph
Humidity: 91%   Direction: 50°NE
Pressure: 29.6"   Gusts: NA
Location:  39.38°N, 90.29°W
Report Text: KIJX 251555Z AUTO 05008KT 10SM SCT009 OVC036 07/05 A2960 RMK AO2 T00670054
Loading
Personal Weather Stations






























Interactive Weather Map New forecast layout! Learn more

10-Day Weather Forecast

Advertisements
Track Severe Weather on mobile